Nearby METAR Reports

 

KFRG - , , USA
Distance from station: SSW 12mi, 20km
Updated: 04/21/2018 11:07am
Few Clouds
Few Clouds
 Wind from WNW
Wind: WNW 12 mph , 19 km/h, Gust: 24 mph , 39 km/h
Temperature: 52°F , 11°C
Dew Point: 23°F , -5°C
Humidity: 32%
Barometer: 30.39 inHg , 1029.1 hPa
Clouds: Few Clouds
Visibility: 10 miles , 16 km
Cloud details: Few Clouds 200 ft
2018/04/21 15:07 KFRG 211507Z 30010G21KT 10SM FEW002 11/M05 A3039 RMK AO2 T01111050
KISP - , , USA
Distance from station: ESE 14mi, 23km
Updated: 04/21/2018 10:56am
Few Clouds
Few Clouds
 Wind from NW
Wind: NW 12 mph , 19 km/h, Gust: 20 mph , 31 km/h
Temperature: 54°F , 12°C
Dew Point: 25°F , -4°C
Humidity: 33%
Barometer: 30.37 inHg , 1028.4 hPa
Clouds: Few Clouds
Visibility: 10 miles , 16 km
Cloud details: Few Clouds 25000 ft
2018/04/21 14:56 KISP 211456Z 32010G17KT 10SM FEW250 12/M04 A3037 RMK AO2 SLP286 T01171044 58003
 
KBDR - , , USA
Distance from station: NNE 21mi, 34km
Updated: 04/21/2018 10:52am
Clear
Clear
 Wind from WNW
Wind: WNW 12 mph , 19 km/h
Temperature: 54°F , 12°C
Dew Point: 23°F , -5°C
Humidity: 30%
Barometer: 30.37 inHg , 1028.4 hPa
Clouds: Clear
Visibility: 10 miles , 16 km
2018/04/21 14:52 KBDR 211452Z 30010KT 10SM CLR 12/M05 A3037 RMK AO2 SLP284 T01171050 58004
KHPN - , , USA
Distance from station: WNW 22mi, 35km
Updated: 04/21/2018 10:56am
Clear
Clear
 Wind from WNW
Wind: WNW 13 mph , 20 km/h
Temperature: 50°F , 10°C
Wind Chill: 45°F , 7°C
Dew Point: 23°F , -5°C
Humidity: 35%
Barometer: 30.37 inHg , 1028.4 hPa
Clouds: Clear
Visibility: 10 miles , 16 km
2018/04/21 14:56 KHPN 211456Z 29011KT 10SM CLR 10/M05 A3037 RMK AO2 SLP290 T01001050 58003
 
KHWV - , , USA
Distance from station: ESE 26mi, 41km
Updated: 04/21/2018 10:56am
Clear
Clear
 Wind from NNW
Wind: NNW 9 mph , 15 km/h, Gust: 24 mph , 39 km/h
Temperature: 52°F , 11°C
Dew Point: 27°F , -3°C
Humidity: 38%
Barometer: 30.38 inHg , 1028.8 hPa
Clouds: Clear
Visibility: 10 miles , 16 km
2018/04/21 14:56 KHWV 211456Z AUTO 33008G21KT 10SM CLR 11/M03 A3038 RMK AO2 SLP287 T01111033 56004
KJFK - , , USA
Distance from station: SW 29mi, 46km
Updated: 04/21/2018 10:51am
Partly cloudy
Partly cloudy
 Wind from NW
Wind: NW 15 mph , 24 km/h
Temperature: 54°F , 12°C
Dew Point: 25°F , -4°C
Humidity: 33%
Barometer: 30.41 inHg , 1029.8 hPa
Clouds: Partly cloudy
Visibility: 10 miles , 16 km
Cloud details: Partly cloudy 25000 ft
2018/04/21 14:51 KJFK 211451Z 32013KT 10SM SCT250 12/M04 A3041 RMK AO2 SLP298 T01171044 58001
 
KLGA - , , USA
Distance from station: WSW 29mi, 47km
Updated: 04/21/2018 10:51am
Partly cloudy
Partly cloudy
 Wind from NW
Wind: NW 10 mph , 17 km/h
Temperature: 52°F , 11°C
Dew Point: 25°F , -4°C
Humidity: 35%
Barometer: 30.40 inHg , 1029.5 hPa
Clouds: Partly cloudy
Visibility: 10 miles , 16 km
Cloud details: Partly cloudy 25000 ft
2018/04/21 14:51 KLGA 211451Z 32009KT 10SM SCT250 11/M04 A3040 RMK AO2 SLP294 T01111039 58003